createdAt,value
2022-11-29T00:01:15.230Z,35.31
2022-11-29T00:07:39.569Z,35.33
2022-11-29T00:14:04.013Z,35.60
2022-11-29T00:20:28.288Z,35.71
2022-11-29T00:26:52.580Z,35.57
2022-11-29T00:33:16.902Z,35.64
2022-11-29T00:39:41.444Z,35.64
2022-11-29T00:46:06.006Z,35.80
2022-11-29T00:52:30.458Z,35.67
2022-11-29T00:58:54.719Z,35.91
2022-11-29T01:05:19.064Z,35.98
2022-11-29T01:11:46.024Z,35.95
2022-11-29T01:18:10.576Z,35.98
2022-11-29T01:24:33.939Z,36.13
2022-11-29T01:30:58.291Z,36.43
2022-11-29T01:37:22.577Z,36.62
2022-11-29T01:43:46.966Z,36.54
2022-11-29T01:50:14.119Z,36.60
2022-11-29T01:56:38.556Z,36.65
2022-11-29T02:03:11.831Z,36.88
2022-11-29T02:09:39.356Z,36.87
2022-11-29T02:16:09.820Z,36.83
2022-11-29T02:22:43.582Z,37.00
2022-11-29T02:29:25.801Z,36.94
2022-11-29T02:35:56.144Z,37.24
2022-11-29T02:42:34.427Z,37.02
2022-11-29T02:49:16.838Z,37.24
2022-11-29T02:55:49.940Z,37.38
2022-11-29T03:02:14.405Z,37.42
2022-11-29T03:08:57.310Z,37.53
2022-11-29T03:15:40.301Z,37.55
2022-11-29T03:22:13.498Z,37.58
2022-11-29T03:28:36.576Z,37.61
2022-11-29T03:35:10.080Z,37.74
2022-11-29T03:41:49.819Z,38.02
2022-11-29T03:48:14.458Z,38.01
2022-11-29T03:54:38.868Z,38.13
2022-11-29T04:01:06.858Z,38.00
2022-11-29T04:07:39.949Z,37.93
2022-11-29T04:14:07.500Z,38.19
2022-11-29T04:20:41.240Z,38.26
2022-11-29T04:27:20.637Z,38.14
2022-11-29T04:33:49.815Z,38.43
2022-11-29T04:40:38.280Z,38.18
2022-11-29T04:47:05.560Z,38.23
2022-11-29T04:53:38.926Z,38.50
2022-11-29T05:00:11.384Z,38.41
2022-11-29T05:06:33.657Z,38.52
2022-11-29T05:13:03.911Z,38.38
2022-11-29T05:19:26.777Z,38.68
2022-11-29T05:25:57.369Z,39.00
2022-11-29T05:32:20.553Z,39.12
2022-11-29T05:38:54.490Z,39.33
2022-11-29T05:45:40.365Z,39.08
2022-11-29T05:52:07.665Z,39.11
2022-11-29T05:58:37.792Z,39.29
2022-11-29T06:05:01.050Z,39.05
2022-11-29T06:11:37.686Z,39.01
2022-11-29T06:18:10.483Z,39.09
2022-11-29T06:24:37.538Z,38.66
2022-11-29T06:31:01.942Z,38.49
2022-11-29T06:37:29.216Z,38.23
2022-11-29T06:43:54.179Z,38.05
2022-11-29T06:50:24.527Z,37.86
2022-11-29T06:57:10.124Z,37.38
2022-11-29T07:03:55.857Z,37.08
2022-11-29T07:10:20.242Z,36.91
2022-11-29T07:16:53.165Z,36.73
2022-11-29T07:23:29.342Z,36.73
2022-11-29T07:29:53.785Z,36.47
2022-11-29T07:36:33.464Z,36.16
2022-11-29T07:43:10.310Z,36.02
2022-11-29T07:49:34.579Z,35.79
2022-11-29T07:55:58.982Z,35.54
2022-11-29T08:02:23.364Z,35.36
2022-11-29T08:08:47.782Z,35.27
2022-11-29T08:15:12.255Z,35.14
2022-11-29T08:21:39.609Z,35.12
2022-11-29T08:28:03.920Z,35.02
2022-11-29T08:34:28.325Z,34.78
2022-11-29T08:40:52.842Z,34.98
2022-11-29T08:47:15.702Z,35.23
2022-11-29T08:53:38.510Z,35.20
2022-11-29T09:00:02.808Z,35.31
2022-11-29T09:06:27.183Z,35.41
2022-11-29T09:12:51.612Z,35.33
2022-11-29T09:19:16.061Z,35.32
2022-11-29T09:25:40.374Z,35.42
2022-11-29T09:32:04.779Z,35.69
2022-11-29T09:38:29.256Z,35.57
2022-11-29T09:44:53.584Z,35.65
2022-11-29T09:51:30.001Z,35.39
2022-11-29T09:57:54.395Z,35.33
2022-11-29T10:04:24.563Z,35.28
2022-11-29T10:10:49.134Z,35.11
2022-11-29T10:17:19.338Z,34.81
2022-11-29T10:23:43.704Z,34.71
2022-11-29T10:30:07.321Z,34.69
2022-11-29T10:36:25.446Z,34.65
2022-11-29T10:43:10.911Z,34.49
2022-11-29T10:49:35.293Z,34.34
2022-11-29T10:55:59.678Z,34.57
2022-11-29T11:02:24.000Z,34.57
2022-11-29T11:08:48.346Z,34.45
2022-11-29T11:15:18.490Z,34.51
2022-11-29T11:21:42.878Z,34.36
2022-11-29T11:28:12.929Z,34.32
2022-11-29T11:34:19.949Z,34.22
2022-11-29T11:40:59.417Z,34.09
2022-11-29T11:47:26.341Z,34.11
2022-11-29T11:54:05.530Z,33.97
2022-11-29T12:01:01.861Z,33.89
2022-11-29T12:07:38.723Z,33.88
2022-11-29T12:14:07.238Z,33.84
2022-11-29T12:20:29.727Z,33.71
2022-11-29T12:27:03.097Z,33.65
2022-11-29T12:33:27.556Z,33.57
2022-11-29T12:40:04.058Z,33.58
2022-11-29T12:46:31.403Z,33.38
2022-11-29T12:53:10.867Z,33.42
2022-11-29T12:59:38.258Z,33.45
2022-11-29T13:06:20.849Z,33.54
2022-11-29T13:13:06.819Z,33.32
2022-11-29T13:19:34.074Z,33.52
2022-11-29T13:26:04.620Z,33.48
2022-11-29T13:32:29.051Z,33.35
2022-11-29T13:38:54.717Z,33.34
2022-11-29T13:45:48.857Z,33.37
2022-11-29T13:52:16.193Z,33.30
2022-11-29T13:58:52.270Z,33.41
2022-11-29T14:05:22.471Z,33.02
2022-11-29T14:11:49.503Z,33.63
2022-11-29T14:18:32.120Z,33.79
2022-11-29T14:25:35.030Z,33.95
2022-11-29T14:31:55.963Z,33.97
2022-11-29T14:38:38.325Z,33.86
2022-11-29T14:45:01.661Z,34.00
2022-11-29T14:51:50.669Z,33.81
2022-11-29T14:58:29.266Z,33.82
2022-11-29T15:04:53.649Z,33.65
2022-11-29T15:11:20.962Z,33.85
2022-11-29T15:17:57.121Z,33.80
2022-11-29T15:24:28.036Z,33.70
2022-11-29T15:30:59.371Z,33.74
2022-11-29T15:37:23.672Z,33.76
2022-11-29T15:43:50.824Z,33.77
2022-11-29T15:50:27.504Z,33.82
2022-11-29T15:56:54.886Z,34.58
2022-11-29T16:03:31.336Z,35.32
2022-11-29T16:10:13.711Z,36.34
2022-11-29T16:16:52.972Z,36.98
2022-11-29T16:23:23.288Z,37.24
2022-11-29T16:29:47.698Z,37.43
2022-11-29T16:36:14.884Z,37.39
2022-11-29T16:42:41.839Z,36.88
2022-11-29T16:49:06.261Z,36.53
2022-11-29T16:55:30.548Z,35.92
2022-11-29T17:02:03.565Z,35.55
2022-11-29T17:08:27.968Z,35.40
2022-11-29T17:14:52.302Z,35.24
2022-11-29T17:21:16.710Z,34.95
2022-11-29T17:27:41.058Z,34.87
2022-11-29T17:34:05.517Z,34.83
2022-11-29T17:40:30.174Z,34.76
2022-11-29T17:46:54.440Z,34.57
2022-11-29T17:53:18.874Z,34.39
2022-11-29T17:59:43.475Z,34.51
2022-11-29T18:06:08.193Z,34.37
2022-11-29T18:12:32.514Z,34.27
2022-11-29T18:18:51.637Z,34.09
2022-11-29T18:25:38.043Z,34.10
2022-11-29T18:32:03.215Z,34.02
2022-11-29T18:38:27.598Z,34.10
2022-11-29T18:44:57.453Z,34.11
2022-11-29T18:51:23.195Z,34.27
2022-11-29T18:57:47.622Z,34.17
2022-11-29T19:04:12.012Z,34.35
2022-11-29T19:10:36.412Z,34.39
2022-11-29T19:17:00.814Z,34.54
2022-11-29T19:23:25.229Z,34.52
2022-11-29T19:29:49.856Z,34.64
2022-11-29T19:36:14.500Z,34.48
2022-11-29T19:42:38.784Z,34.63
2022-11-29T19:49:03.298Z,34.86
2022-11-29T19:55:27.669Z,34.91
2022-11-29T20:01:54.808Z,34.97
2022-11-29T20:08:21.454Z,34.76
2022-11-29T20:14:46.212Z,34.55
2022-11-29T20:21:10.772Z,34.54
2022-11-29T20:27:35.321Z,34.44
2022-11-29T20:33:59.760Z,34.26
2022-11-29T20:40:27.022Z,34.16
2022-11-29T20:46:51.518Z,34.19
2022-11-29T20:53:18.422Z,34.03
2022-11-29T20:59:42.753Z,34.21
2022-11-29T21:06:07.281Z,33.96
2022-11-29T21:12:31.832Z,34.04
2022-11-29T21:18:59.348Z,33.73
2022-11-29T21:25:26.392Z,34.06
2022-11-29T21:31:50.802Z,33.92
2022-11-29T21:38:15.331Z,33.92
2022-11-29T21:44:39.707Z,34.19
2022-11-29T21:51:04.035Z,34.28
2022-11-29T21:57:28.324Z,34.19
2022-11-29T22:03:52.583Z,34.12
2022-11-29T22:10:16.645Z,34.26
2022-11-29T22:16:46.831Z,34.12
2022-11-29T22:23:11.230Z,34.29
2022-11-29T22:29:35.610Z,34.13
2022-11-29T22:35:53.613Z,34.41
2022-11-29T22:42:17.914Z,34.29
2022-11-29T22:48:42.228Z,34.49
2022-11-29T22:55:06.644Z,34.48
2022-11-29T23:01:31.023Z,34.36
2022-11-29T23:07:55.530Z,34.60
2022-11-29T23:14:19.882Z,34.72
2022-11-29T23:20:44.404Z,34.74
2022-11-29T23:27:08.689Z,34.80
2022-11-29T23:33:33.032Z,34.84
2022-11-29T23:39:57.522Z,34.86
2022-11-29T23:46:21.767Z,34.95
2022-11-29T23:52:46.132Z,34.90
2022-11-29T23:59:10.566Z,34.97
